sensor_id;sensor_type;location;lat;lon;timestamp;pressure;altitude;pressure_sealevel;temperature
42119;BMP280;27783;42.782;23.274;2023-09-30T00:00:59;95953.72;;;12.48
42119;BMP280;27783;42.782;23.274;2023-09-30T00:03:25;95960.94;;;12.37
42119;BMP280;27783;42.782;23.274;2023-09-30T00:05:52;95959.81;;;12.28
42119;BMP280;27783;42.782;23.274;2023-09-30T00:08:17;95947.66;;;12.65
42119;BMP280;27783;42.782;23.274;2023-09-30T00:10:42;95949.16;;;12.69
42119;BMP280;27783;42.782;23.274;2023-09-30T00:13:08;95946.47;;;12.79
42119;BMP280;27783;42.782;23.274;2023-09-30T00:15:34;95947.13;;;13.00
42119;BMP280;27783;42.782;23.274;2023-09-30T00:17:59;95946.06;;;12.81
42119;BMP280;27783;42.782;23.274;2023-09-30T00:20:26;95953.59;;;12.92
42119;BMP280;27783;42.782;23.274;2023-09-30T00:22:52;95948.31;;;12.85
42119;BMP280;27783;42.782;23.274;2023-09-30T00:25:18;95942.00;;;12.52
42119;BMP280;27783;42.782;23.274;2023-09-30T00:27:43;95952.56;;;12.56
42119;BMP280;27783;42.782;23.274;2023-09-30T00:30:08;95952.13;;;12.78
42119;BMP280;27783;42.782;23.274;2023-09-30T00:32:34;95951.78;;;12.69
42119;BMP280;27783;42.782;23.274;2023-09-30T00:35:02;95945.31;;;12.83
42119;BMP280;27783;42.782;23.274;2023-09-30T00:37:28;95937.22;;;13.11
42119;BMP280;27783;42.782;23.274;2023-09-30T00:39:53;95941.06;;;13.03
42119;BMP280;27783;42.782;23.274;2023-09-30T00:42:19;95934.91;;;13.23
42119;BMP280;27783;42.782;23.274;2023-09-30T00:44:46;95937.97;;;13.15
42119;BMP280;27783;42.782;23.274;2023-09-30T00:47:13;95943.22;;;13.21
42119;BMP280;27783;42.782;23.274;2023-09-30T00:49:40;95944.09;;;12.98
42119;BMP280;27783;42.782;23.274;2023-09-30T00:52:09;95943.38;;;12.87
42119;BMP280;27783;42.782;23.274;2023-09-30T00:54:35;95940.63;;;13.08
42119;BMP280;27783;42.782;23.274;2023-09-30T00:57:02;95936.44;;;13.14
42119;BMP280;27783;42.782;23.274;2023-09-30T00:59:29;95936.88;;;13.05
42119;BMP280;27783;42.782;23.274;2023-09-30T01:01:56;95946.47;;;12.79
42119;BMP280;27783;42.782;23.274;2023-09-30T01:04:23;95934.44;;;12.54
42119;BMP280;27783;42.782;23.274;2023-09-30T01:06:48;95943.47;;;12.74
42119;BMP280;27783;42.782;23.274;2023-09-30T01:09:15;95935.56;;;12.67
42119;BMP280;27783;42.782;23.274;2023-09-30T01:11:41;95930.19;;;12.81
42119;BMP280;27783;42.782;23.274;2023-09-30T01:14:26;95939.53;;;13.05
42119;BMP280;27783;42.782;23.274;2023-09-30T01:16:52;95936.97;;;12.88
42119;BMP280;27783;42.782;23.274;2023-09-30T01:19:18;95936.06;;;13.15
42119;BMP280;27783;42.782;23.274;2023-09-30T01:21:43;95928.13;;;13.15
42119;BMP280;27783;42.782;23.274;2023-09-30T01:24:16;95931.97;;;13.04
42119;BMP280;27783;42.782;23.274;2023-09-30T01:26:41;95925.19;;;13.00
42119;BMP280;27783;42.782;23.274;2023-09-30T01:29:08;95932.06;;;13.47
42119;BMP280;27783;42.782;23.274;2023-09-30T01:31:37;95927.66;;;13.27
42119;BMP280;27783;42.782;23.274;2023-09-30T01:34:03;95930.41;;;13.17
42119;BMP280;27783;42.782;23.274;2023-09-30T01:36:28;95932.72;;;13.04
42119;BMP280;27783;42.782;23.274;2023-09-30T01:38:54;95927.41;;;13.08
42119;BMP280;27783;42.782;23.274;2023-09-30T01:41:19;95949.78;;;13.00
42119;BMP280;27783;42.782;23.274;2023-09-30T01:43:45;95936.97;;;12.88
42119;BMP280;27783;42.782;23.274;2023-09-30T01:46:10;95944.91;;;12.88
42119;BMP280;27783;42.782;23.274;2023-09-30T01:48:35;95941.88;;;12.93
42119;BMP280;27783;42.782;23.274;2023-09-30T01:51:01;95942.63;;;12.94
42119;BMP280;27783;42.782;23.274;2023-09-30T01:53:26;95938.88;;;12.81
42119;BMP280;27783;42.782;23.274;2023-09-30T01:55:52;95932.16;;;12.67
42119;BMP280;27783;42.782;23.274;2023-09-30T01:58:17;95938.97;;;12.57
42119;BMP280;27783;42.782;23.274;2023-09-30T02:00:43;95935.94;;;12.66
42119;BMP280;27783;42.782;23.274;2023-09-30T02:03:08;95939.38;;;12.52
42119;BMP280;27783;42.782;23.274;2023-09-30T02:05:33;95936.03;;;12.28
42119;BMP280;27783;42.782;23.274;2023-09-30T02:07:59;95940.22;;;12.12
42119;BMP280;27783;42.782;23.274;2023-09-30T02:10:24;95932.69;;;12.11
42119;BMP280;27783;42.782;23.274;2023-09-30T02:12:49;95929.28;;;12.14
42119;BMP280;27783;42.782;23.274;2023-09-30T02:15:15;95939.06;;;12.27
42119;BMP280;27783;42.782;23.274;2023-09-30T02:17:41;95932.69;;;12.11
42119;BMP280;27783;42.782;23.274;2023-09-30T02:20:11;95933.03;;;12.26
42119;BMP280;27783;42.782;23.274;2023-09-30T02:22:39;95930.72;;;12.35
42119;BMP280;27783;42.782;23.274;2023-09-30T02:25:05;95937.53;;;12.36
42119;BMP280;27783;42.782;23.274;2023-09-30T02:27:32;95934.16;;;12.22
42119;BMP280;27783;42.782;23.274;2023-09-30T02:29:57;95942.84;;;12.22
42119;BMP280;27783;42.782;23.274;2023-09-30T02:32:23;95940.59;;;12.21
42119;BMP280;27783;42.782;23.274;2023-09-30T02:34:49;95931.16;;;12.13
42119;BMP280;27783;42.782;23.274;2023-09-30T02:37:15;95940.19;;;12.29
42119;BMP280;27783;42.782;23.274;2023-09-30T02:39:41;95938.31;;;12.30
42119;BMP280;27783;42.782;23.274;2023-09-30T02:42:06;95928.88;;;12.25
42119;BMP280;27783;42.782;23.274;2023-09-30T02:44:32;95926.66;;;12.03
42119;BMP280;27783;42.782;23.274;2023-09-30T02:46:57;95937.63;;;11.37
42119;BMP280;27783;42.782;23.274;2023-09-30T02:49:22;95937.63;;;11.37
42119;BMP280;27783;42.782;23.274;2023-09-30T02:51:48;95931.97;;;11.25
42119;BMP280;27783;42.782;23.274;2023-09-30T02:54:15;95945.91;;;11.39
42119;BMP280;27783;42.782;23.274;2023-09-30T02:56:41;95937.19;;;11.12
42119;BMP280;27783;42.782;23.274;2023-09-30T02:59:06;95936.88;;;11.40
42119;BMP280;27783;42.782;23.274;2023-09-30T03:01:32;95938.00;;;11.29
42119;BMP280;27783;42.782;23.274;2023-09-30T03:03:58;95935.28;;;10.95
42119;BMP280;27783;42.782;23.274;2023-09-30T03:06:23;95933.03;;;11.04
42119;BMP280;27783;42.782;23.274;2023-09-30T03:08:49;95934.94;;;11.17
42119;BMP280;27783;42.782;23.274;2023-09-30T03:11:14;95938.75;;;11.40
42119;BMP280;27783;42.782;23.274;2023-09-30T03:13:39;95939.09;;;11.15
42119;BMP280;27783;42.782;23.274;2023-09-30T03:16:07;95934.56;;;11.08
42119;BMP280;27783;42.782;23.274;2023-09-30T03:18:33;95932.66;;;11.09
42119;BMP280;27783;42.782;23.274;2023-09-30T03:21:00;95940.25;;;11.27
42119;BMP280;27783;42.782;23.274;2023-09-30T03:23:27;95937.63;;;11.27
42119;BMP280;27783;42.782;23.274;2023-09-30T03:25:59;95939.50;;;11.27
42119;BMP280;27783;42.782;23.274;2023-09-30T03:28:28;95945.00;;;10.78
42119;BMP280;27783;42.782;23.274;2023-09-30T03:30:54;95946.44;;;10.58
42119;BMP280;27783;42.782;23.274;2023-09-30T03:33:19;95942.25;;;10.50
42119;BMP280;27783;42.782;23.274;2023-09-30T03:35:45;95944.22;;;10.67
42119;BMP280;27783;42.782;23.274;2023-09-30T03:38:11;95941.25;;;10.75
42119;BMP280;27783;42.782;23.274;2023-09-30T03:40:39;95945.09;;;11.01
42119;BMP280;27783;42.782;23.274;2023-09-30T03:43:04;95942.50;;;11.18
42119;BMP280;27783;42.782;23.274;2023-09-30T03:45:35;95952.28;;;11.21
42119;BMP280;27783;42.782;23.274;2023-09-30T03:48:02;95939.84;;;11.22
42119;BMP280;27783;42.782;23.274;2023-09-30T03:50:28;95946.66;;;11.30
42119;BMP280;27783;42.782;23.274;2023-09-30T03:53:01;95943.97;;;11.19
42119;BMP280;27783;42.782;23.274;2023-09-30T03:55:27;95948.50;;;11.09
42119;BMP280;27783;42.782;23.274;2023-09-30T03:57:55;95944.34;;;11.11
42119;BMP280;27783;42.782;23.274;2023-09-30T04:00:20;95948.06;;;10.97
42119;BMP280;27783;42.782;23.274;2023-09-30T04:02:46;95951.13;;;11.09
42119;BMP280;27783;42.782;23.274;2023-09-30T04:05:25;95954.44;;;10.82
42119;BMP280;27783;42.782;23.274;2023-09-30T04:08:13;95954.84;;;10.87
42119;BMP280;27783;42.782;23.274;2023-09-30T04:10:41;95953.69;;;10.82
42119;BMP280;27783;42.782;23.274;2023-09-30T04:13:06;95957.84;;;10.82
42119;BMP280;27783;42.782;23.274;2023-09-30T04:15:32;95955.19;;;10.76
42119;BMP280;27783;42.782;23.274;2023-09-30T04:17:58;95962.28;;;10.65
42119;BMP280;27783;42.782;23.274;2023-09-30T04:20:23;95963.03;;;10.62
42119;BMP280;27783;42.782;23.274;2023-09-30T04:22:54;95957.81;;;10.72
42119;BMP280;27783;42.782;23.274;2023-09-30T04:25:34;95961.56;;;10.75
42119;BMP280;27783;42.782;23.274;2023-09-30T04:28:00;95967.97;;;10.74
42119;BMP280;27783;42.782;23.274;2023-09-30T04:30:25;95966.19;;;10.98
42119;BMP280;27783;42.782;23.274;2023-09-30T04:32:52;95967.28;;;10.90
42119;BMP280;27783;42.782;23.274;2023-09-30T04:35:18;95968.06;;;10.98
42119;BMP280;27783;42.782;23.274;2023-09-30T04:37:43;95969.50;;;10.78
42119;BMP280;27783;42.782;23.274;2023-09-30T04:40:09;95966.09;;;10.78
42119;BMP280;27783;42.782;23.274;2023-09-30T04:42:43;95969.09;;;10.66
42119;BMP280;27783;42.782;23.274;2023-09-30T04:45:10;95968.91;;;10.32
42119;BMP280;27783;42.782;23.274;2023-09-30T04:47:36;95976.91;;;10.46
42119;BMP280;27783;42.782;23.274;2023-09-30T04:50:07;95971.88;;;10.20
42119;BMP280;27783;42.782;23.274;2023-09-30T04:52:38;95980.50;;;10.21
42119;BMP280;27783;42.782;23.274;2023-09-30T04:55:06;95974.78;;;10.05
42119;BMP280;27783;42.782;23.274;2023-09-30T04:57:35;95977.06;;;10.07
42119;BMP280;27783;42.782;23.274;2023-09-30T05:00:02;95986.72;;;9.93
42119;BMP280;27783;42.782;23.274;2023-09-30T05:02:36;95982.91;;;9.83
42119;BMP280;27783;42.782;23.274;2023-09-30T05:05:06;95990.81;;;9.83
42119;BMP280;27783;42.782;23.274;2023-09-30T05:07:33;95990.38;;;9.82
42119;BMP280;27783;42.782;23.274;2023-09-30T05:09:58;95986.69;;;9.89
42119;BMP280;27783;42.782;23.274;2023-09-30T05:12:25;95996.03;;;10.36
42119;BMP280;27783;42.782;23.274;2023-09-30T05:14:50;95996.19;;;10.63
42119;BMP280;27783;42.782;23.274;2023-09-30T05:17:17;95993.63;;;10.83
42119;BMP280;27783;42.782;23.274;2023-09-30T05:19:42;95996.72;;;11.02
42119;BMP280;27783;42.782;23.274;2023-09-30T05:22:09;95988.03;;;11.02
42119;BMP280;27783;42.782;23.274;2023-09-30T05:24:35;95994.09;;;11.09
42119;BMP280;27783;42.782;23.274;2023-09-30T05:27:00;95997.47;;;11.10
42119;BMP280;27783;42.782;23.274;2023-09-30T05:29:29;95999.78;;;11.21
42119;BMP280;27783;42.782;23.274;2023-09-30T05:31:58;95990.41;;;11.27
42119;BMP280;27783;42.782;23.274;2023-09-30T05:34:24;95991.94;;;11.49
42119;BMP280;27783;42.782;23.274;2023-09-30T05:36:49;96002.13;;;11.60
42119;BMP280;27783;42.782;23.274;2023-09-30T05:39:16;96001.03;;;11.82
42119;BMP280;27783;42.782;23.274;2023-09-30T05:42:06;96008.94;;;12.02
42119;BMP280;27783;42.782;23.274;2023-09-30T05:44:32;96008.56;;;12.07
42119;BMP280;27783;42.782;23.274;2023-09-30T05:46:57;96001.75;;;12.23
42119;BMP280;27783;42.782;23.274;2023-09-30T05:49:25;96009.25;;;12.38
42119;BMP280;27783;42.782;23.274;2023-09-30T05:51:50;96010.78;;;12.42
42119;BMP280;27783;42.782;23.274;2023-09-30T05:54:16;96009.22;;;12.65
42119;BMP280;27783;42.782;23.274;2023-09-30T05:56:43;96010.34;;;12.71
42119;BMP280;27783;42.782;23.274;2023-09-30T05:59:09;96012.59;;;12.83
42119;BMP280;27783;42.782;23.274;2023-09-30T06:01:34;96011.78;;;12.96
42119;BMP280;27783;42.782;23.274;2023-09-30T06:04:04;96014.38;;;13.06
42119;BMP280;27783;42.782;23.274;2023-09-30T06:06:30;96008.28;;;13.19
42119;BMP280;27783;42.782;23.274;2023-09-30T06:08:56;96016.13;;;13.39
42119;BMP280;27783;42.782;23.274;2023-09-30T06:11:25;96005.06;;;13.51
42119;BMP280;27783;42.782;23.274;2023-09-30T06:13:57;96011.34;;;13.74
42119;BMP280;27783;42.782;23.274;2023-09-30T06:16:26;96008.09;;;14.02
42119;BMP280;27783;42.782;23.274;2023-09-30T06:18:56;96010.00;;;14.05
42119;BMP280;27783;42.782;23.274;2023-09-30T06:21:22;96017.72;;;14.29
42119;BMP280;27783;42.782;23.274;2023-09-30T06:23:48;96011.13;;;14.47
42119;BMP280;27783;42.782;23.274;2023-09-30T06:26:14;96018.50;;;14.66
42119;BMP280;27783;42.782;23.274;2023-09-30T06:28:42;96016.91;;;15.11
42119;BMP280;27783;42.782;23.274;2023-09-30T06:31:08;96018.03;;;15.10
42119;BMP280;27783;42.782;23.274;2023-09-30T06:33:35;96016.97;;;15.33
42119;BMP280;27783;42.782;23.274;2023-09-30T06:36:08;96014.78;;;15.54
42119;BMP280;27783;42.782;23.274;2023-09-30T06:38:33;96025.50;;;15.76
42119;BMP280;27783;42.782;23.274;2023-09-30T06:40:59;96018.34;;;15.99
42119;BMP280;27783;42.782;23.274;2023-09-30T06:43:25;96021.28;;;16.49
42119;BMP280;27783;42.782;23.274;2023-09-30T06:45:50;96014.75;;;16.72
42119;BMP280;27783;42.782;23.274;2023-09-30T06:48:15;96012.03;;;16.76
42119;BMP280;27783;42.782;23.274;2023-09-30T06:50:49;96015.81;;;17.35
42119;BMP280;27783;42.782;23.274;2023-09-30T06:53:18;96012.81;;;17.33
42119;BMP280;27783;42.782;23.274;2023-09-30T06:55:44;96011.81;;;17.81
42119;BMP280;27783;42.782;23.274;2023-09-30T06:58:10;96018.28;;;17.45
42119;BMP280;27783;42.782;23.274;2023-09-30T07:00:37;96025.47;;;17.83
42119;BMP280;27783;42.782;23.274;2023-09-30T07:03:03;96018.75;;;18.09
42119;BMP280;27783;42.782;23.274;2023-09-30T07:05:29;96023.44;;;18.36
42119;BMP280;27783;42.782;23.274;2023-09-30T07:07:54;96015.06;;;18.66
42119;BMP280;27783;42.782;23.274;2023-09-30T07:10:20;96016.81;;;18.56
42119;BMP280;27783;42.782;23.274;2023-09-30T07:12:46;96009.41;;;19.19
42119;BMP280;27783;42.782;23.274;2023-09-30T07:15:11;96022.47;;;18.74
42119;BMP280;27783;42.782;23.274;2023-09-30T07:17:42;96015.56;;;18.76
42119;BMP280;27783;42.782;23.274;2023-09-30T07:20:11;96012.28;;;18.85
42119;BMP280;27783;42.782;23.274;2023-09-30T07:22:37;96008.78;;;19.27
42119;BMP280;27783;42.782;23.274;2023-09-30T07:25:02;96017.88;;;20.06
42119;BMP280;27783;42.782;23.274;2023-09-30T07:27:31;96010.50;;;19.46
42119;BMP280;27783;42.782;23.274;2023-09-30T07:29:57;96016.72;;;19.43
42119;BMP280;27783;42.782;23.274;2023-09-30T07:32:23;96011.19;;;19.50
42119;BMP280;27783;42.782;23.274;2023-09-30T07:34:50;96011.13;;;20.14
42119;BMP280;27783;42.782;23.274;2023-09-30T07:37:19;96009.09;;;20.18
42119;BMP280;27783;42.782;23.274;2023-09-30T07:39:46;96012.63;;;20.72
42119;BMP280;27783;42.782;23.274;2023-09-30T07:42:13;96012.13;;;20.65
42119;BMP280;27783;42.782;23.274;2023-09-30T07:44:41;96017.44;;;21.52
42119;BMP280;27783;42.782;23.274;2023-09-30T07:47:07;96005.72;;;21.37
42119;BMP280;27783;42.782;23.274;2023-09-30T07:49:33;96005.41;;;20.48
42119;BMP280;27783;42.782;23.274;2023-09-30T07:51:59;96008.47;;;21.46
42119;BMP280;27783;42.782;23.274;2023-09-30T07:54:24;96009.19;;;21.67
42119;BMP280;27783;42.782;23.274;2023-09-30T07:56:59;96002.47;;;22.39
42119;BMP280;27783;42.782;23.274;2023-09-30T07:59:31;96010.47;;;22.60
42119;BMP280;27783;42.782;23.274;2023-09-30T08:02:01;96004.41;;;22.30
42119;BMP280;27783;42.782;23.274;2023-09-30T08:04:31;96014.09;;;23.10
42119;BMP280;27783;42.782;23.274;2023-09-30T08:06:56;96002.44;;;23.39
42119;BMP280;27783;42.782;23.274;2023-09-30T08:09:28;95991.28;;;23.89
42119;BMP280;27783;42.782;23.274;2023-09-30T08:11:54;95988.59;;;24.44
42119;BMP280;27783;42.782;23.274;2023-09-30T08:14:24;95993.16;;;23.49
42119;BMP280;27783;42.782;23.274;2023-09-30T08:16:51;95987.66;;;23.17
42119;BMP280;27783;42.782;23.274;2023-09-30T08:19:29;95990.31;;;23.52
42119;BMP280;27783;42.782;23.274;2023-09-30T08:21:57;95986.25;;;23.48
42119;BMP280;27783;42.782;23.274;2023-09-30T08:24:33;95988.34;;;24.33
42119;BMP280;27783;42.782;23.274;2023-09-30T08:26:59;95979.91;;;24.49
42119;BMP280;27783;42.782;23.274;2023-09-30T08:29:26;95977.91;;;24.26
42119;BMP280;27783;42.782;23.274;2023-09-30T08:31:52;95990.47;;;23.98
42119;BMP280;27783;42.782;23.274;2023-09-30T08:34:18;95982.69;;;24.86
42119;BMP280;27783;42.782;23.274;2023-09-30T08:36:48;95987.69;;;25.15
42119;BMP280;27783;42.782;23.274;2023-09-30T08:39:15;95977.69;;;25.58
42119;BMP280;27783;42.782;23.274;2023-09-30T08:41:41;95974.44;;;25.54
42119;BMP280;27783;42.782;23.274;2023-09-30T08:44:12;95971.13;;;25.22
42119;BMP280;27783;42.782;23.274;2023-09-30T08:46:38;95968.38;;;25.45
42119;BMP280;27783;42.782;23.274;2023-09-30T08:49:04;95955.63;;;26.55
42119;BMP280;27783;42.782;23.274;2023-09-30T08:51:32;95963.09;;;26.26
42119;BMP280;27783;42.782;23.274;2023-09-30T08:54:00;95958.00;;;26.14
42119;BMP280;27783;42.782;23.274;2023-09-30T08:56:31;95958.13;;;25.49
42119;BMP280;27783;42.782;23.274;2023-09-30T08:59:03;95946.50;;;25.71
42119;BMP280;27783;42.782;23.274;2023-09-30T09:01:30;95950.34;;;26.12
42119;BMP280;27783;42.782;23.274;2023-09-30T09:03:57;95944.00;;;27.07
42119;BMP280;27783;42.782;23.274;2023-09-30T09:06:24;95942.81;;;26.69
42119;BMP280;27783;42.782;23.274;2023-09-30T09:08:51;95935.88;;;26.88
42119;BMP280;27783;42.782;23.274;2023-09-30T09:11:17;95945.28;;;26.92
42119;BMP280;27783;42.782;23.274;2023-09-30T09:13:53;95943.59;;;27.14
42119;BMP280;27783;42.782;23.274;2023-09-30T09:16:22;95936.66;;;27.87
42119;BMP280;27783;42.782;23.274;2023-09-30T09:18:48;95936.53;;;27.46
42119;BMP280;27783;42.782;23.274;2023-09-30T09:21:14;95931.53;;;27.40
42119;BMP280;27783;42.782;23.274;2023-09-30T09:23:42;95933.88;;;26.83
42119;BMP280;27783;42.782;23.274;2023-09-30T09:26:23;95928.19;;;27.00
42119;BMP280;27783;42.782;23.274;2023-09-30T09:29:00;95928.47;;;27.27
42119;BMP280;27783;42.782;23.274;2023-09-30T09:31:28;95918.75;;;27.15
42119;BMP280;27783;42.782;23.274;2023-09-30T09:33:55;95920.06;;;27.00
42119;BMP280;27783;42.782;23.274;2023-09-30T09:36:21;95915.00;;;27.62
42119;BMP280;27783;42.782;23.274;2023-09-30T09:38:50;95912.50;;;27.29
42119;BMP280;27783;42.782;23.274;2023-09-30T09:41:21;95906.44;;;27.39
42119;BMP280;27783;42.782;23.274;2023-09-30T09:43:49;95901.53;;;28.03
42119;BMP280;27783;42.782;23.274;2023-09-30T09:46:17;95917.00;;;27.62
42119;BMP280;27783;42.782;23.274;2023-09-30T09:48:44;95901.06;;;27.44
42119;BMP280;27783;42.782;23.274;2023-09-30T09:51:11;95899.41;;;28.12
42119;BMP280;27783;42.782;23.274;2023-09-30T09:53:39;95902.00;;;27.66
42119;BMP280;27783;42.782;23.274;2023-09-30T09:56:07;95895.44;;;27.23
42119;BMP280;27783;42.782;23.274;2023-09-30T09:58:35;95901.22;;;27.11
42119;BMP280;27783;42.782;23.274;2023-09-30T10:01:03;95893.84;;;27.11
42119;BMP280;27783;42.782;23.274;2023-09-30T10:03:32;95896.91;;;27.79
42119;BMP280;27783;42.782;23.274;2023-09-30T10:05:59;95891.22;;;27.72
42119;BMP280;27783;42.782;23.274;2023-09-30T10:08:32;95878.72;;;28.15
42119;BMP280;27783;42.782;23.274;2023-09-30T10:11:00;95883.28;;;27.38
42119;BMP280;27783;42.782;23.274;2023-09-30T10:13:52;95883.50;;;27.10
42119;BMP280;27783;42.782;23.274;2023-09-30T10:19:12;95873.53;;;27.21
42119;BMP280;27783;42.782;23.274;2023-09-30T10:24:52;95850.31;;;27.70
42119;BMP280;27783;42.782;23.274;2023-09-30T10:27:28;95854.41;;;28.36
42119;BMP280;27783;42.782;23.274;2023-09-30T10:40:53;95857.47;;;27.73
42119;BMP280;27783;42.782;23.274;2023-09-30T10:43:36;95835.84;;;28.19
42119;BMP280;27783;42.782;23.274;2023-09-30T10:46:30;95841.81;;;27.87
42119;BMP280;27783;42.782;23.274;2023-09-30T10:48:56;95847.19;;;27.82
42119;BMP280;27783;42.782;23.274;2023-09-30T10:51:22;95849.84;;;27.46
42119;BMP280;27783;42.782;23.274;2023-09-30T10:53:52;95828.41;;;27.73
42119;BMP280;27783;42.782;23.274;2023-09-30T10:56:22;95835.13;;;27.83
42119;BMP280;27783;42.782;23.274;2023-09-30T10:58:52;95818.16;;;28.34
42119;BMP280;27783;42.782;23.274;2023-09-30T11:01:21;95825.25;;;28.21
42119;BMP280;27783;42.782;23.274;2023-09-30T11:03:48;95823.81;;;28.30
42119;BMP280;27783;42.782;23.274;2023-09-30T11:06:19;95822.75;;;27.76
42119;BMP280;27783;42.782;23.274;2023-09-30T11:08:51;95822.22;;;28.08
42119;BMP280;27783;42.782;23.274;2023-09-30T11:11:40;95823.88;;;27.95
42119;BMP280;27783;42.782;23.274;2023-09-30T11:16:54;95812.59;;;28.07
42119;BMP280;27783;42.782;23.274;2023-09-30T11:19:21;95812.69;;;28.18
42119;BMP280;27783;42.782;23.274;2023-09-30T11:21:54;95801.75;;;28.64
42119;BMP280;27783;42.782;23.274;2023-09-30T11:24:24;95803.81;;;28.95
42119;BMP280;27783;42.782;23.274;2023-09-30T11:26:55;95795.69;;;29.60
42119;BMP280;27783;42.782;23.274;2023-09-30T11:29:23;95810.22;;;28.25
42119;BMP280;27783;42.782;23.274;2023-09-30T11:31:50;95813.44;;;27.53
42119;BMP280;27783;42.782;23.274;2023-09-30T11:34:16;95808.66;;;28.08
42119;BMP280;27783;42.782;23.274;2023-09-30T11:36:51;95797.94;;;28.29
42119;BMP280;27783;42.782;23.274;2023-09-30T11:39:31;95806.91;;;28.57
42119;BMP280;27783;42.782;23.274;2023-09-30T11:42:01;95796.41;;;29.23
42119;BMP280;27783;42.782;23.274;2023-09-30T11:44:26;95805.50;;;28.88
42119;BMP280;27783;42.782;23.274;2023-09-30T11:46:56;95790.06;;;28.37
42119;BMP280;27783;42.782;23.274;2023-09-30T11:51:49;95790.25;;;27.41
42119;BMP280;27783;42.782;23.274;2023-09-30T11:54:15;95791.22;;;27.74
42119;BMP280;27783;42.782;23.274;2023-09-30T11:56:41;95790.69;;;27.34
42119;BMP280;27783;42.782;23.274;2023-09-30T11:59:07;95791.97;;;27.74
42119;BMP280;27783;42.782;23.274;2023-09-30T12:01:38;95788.81;;;27.15
42119;BMP280;27783;42.782;23.274;2023-09-30T12:04:04;95775.72;;;28.26
42119;BMP280;27783;42.782;23.274;2023-09-30T12:06:30;95769.91;;;28.02
42119;BMP280;27783;42.782;23.274;2023-09-30T12:08:56;95771.75;;;27.40
42119;BMP280;27783;42.782;23.274;2023-09-30T12:11:23;95773.25;;;27.76
42119;BMP280;27783;42.782;23.274;2023-09-30T12:13:49;95765.91;;;27.82
42119;BMP280;27783;42.782;23.274;2023-09-30T12:16:22;95770.16;;;27.99
42119;BMP280;27783;42.782;23.274;2023-09-30T12:18:48;95758.03;;;28.41
42119;BMP280;27783;42.782;23.274;2023-09-30T12:21:13;95755.53;;;27.75
42119;BMP280;27783;42.782;23.274;2023-09-30T12:23:45;95750.63;;;27.84
42119;BMP280;27783;42.782;23.274;2023-09-30T12:26:12;95757.84;;;27.98
42119;BMP280;27783;42.782;23.274;2023-09-30T12:28:38;95743.47;;;28.49
42119;BMP280;27783;42.782;23.274;2023-09-30T12:31:06;95738.13;;;28.70
42119;BMP280;27783;42.782;23.274;2023-09-30T12:33:31;95736.38;;;29.58
42119;BMP280;27783;42.782;23.274;2023-09-30T12:35:58;95755.59;;;28.53
42119;BMP280;27783;42.782;23.274;2023-09-30T12:38:26;95752.22;;;28.12
42119;BMP280;27783;42.782;23.274;2023-09-30T12:40:54;95733.94;;;28.85
42119;BMP280;27783;42.782;23.274;2023-09-30T12:43:20;95733.66;;;28.57
42119;BMP280;27783;42.782;23.274;2023-09-30T12:45:46;95743.63;;;28.13
42119;BMP280;27783;42.782;23.274;2023-09-30T12:48:12;95733.84;;;28.37
42119;BMP280;27783;42.782;23.274;2023-09-30T12:50:38;95739.72;;;28.14
42119;BMP280;27783;42.782;23.274;2023-09-30T12:53:04;95739.50;;;27.77
42119;BMP280;27783;42.782;23.274;2023-09-30T12:55:31;95734.91;;;27.93
42119;BMP280;27783;42.782;23.274;2023-09-30T12:58:17;95736.84;;;27.11
42119;BMP280;27783;42.782;23.274;2023-09-30T13:00:42;95726.34;;;27.24
42119;BMP280;27783;42.782;23.274;2023-09-30T13:03:09;95726.13;;;27.27
42119;BMP280;27783;42.782;23.274;2023-09-30T13:05:35;95729.63;;;27.03
42119;BMP280;27783;42.782;23.274;2023-09-30T13:08:07;95724.69;;;28.29
42119;BMP280;27783;42.782;23.274;2023-09-30T13:10:32;95724.28;;;28.58
42119;BMP280;27783;42.782;23.274;2023-09-30T13:13:00;95717.28;;;28.19
42119;BMP280;27783;42.782;23.274;2023-09-30T13:15:28;95722.22;;;27.28
42119;BMP280;27783;42.782;23.274;2023-09-30T13:17:54;95723.78;;;26.80
42119;BMP280;27783;42.782;23.274;2023-09-30T13:20:19;95727.69;;;27.04
42119;BMP280;27783;42.782;23.274;2023-09-30T13:22:45;95728.88;;;26.73
42119;BMP280;27783;42.782;23.274;2023-09-30T13:25:11;95714.44;;;26.81
42119;BMP280;27783;42.782;23.274;2023-09-30T13:27:38;95715.41;;;27.08
42119;BMP280;27783;42.782;23.274;2023-09-30T13:30:07;95717.88;;;27.47
42119;BMP280;27783;42.782;23.274;2023-09-30T13:32:34;95709.41;;;27.29
42119;BMP280;27783;42.782;23.274;2023-09-30T13:35:04;95710.75;;;26.54
42119;BMP280;27783;42.782;23.274;2023-09-30T13:37:31;95705.28;;;27.03
42119;BMP280;27783;42.782;23.274;2023-09-30T13:40:01;95700.97;;;26.86
42119;BMP280;27783;42.782;23.274;2023-09-30T13:42:29;95696.31;;;26.62
42119;BMP280;27783;42.782;23.274;2023-09-30T13:44:55;95695.94;;;27.04
42119;BMP280;27783;42.782;23.274;2023-09-30T13:47:24;95693.06;;;26.53
42119;BMP280;27783;42.782;23.274;2023-09-30T13:49:49;95686.84;;;26.77
42119;BMP280;27783;42.782;23.274;2023-09-30T13:52:14;95694.81;;;26.86
42119;BMP280;27783;42.782;23.274;2023-09-30T13:54:40;95691.31;;;26.80
42119;BMP280;27783;42.782;23.274;2023-09-30T13:57:05;95695.84;;;26.63
42119;BMP280;27783;42.782;23.274;2023-09-30T13:59:34;95698.63;;;26.24
42119;BMP280;27783;42.782;23.274;2023-09-30T14:02:00;95700.38;;;26.77
42119;BMP280;27783;42.782;23.274;2023-09-30T14:04:26;95695.88;;;26.69
42119;BMP280;27783;42.782;23.274;2023-09-30T14:06:52;95695.28;;;26.10
42119;BMP280;27783;42.782;23.274;2023-09-30T14:09:17;95694.22;;;26.46
42119;BMP280;27783;42.782;23.274;2023-09-30T14:11:43;95692.47;;;26.74
42119;BMP280;27783;42.782;23.274;2023-09-30T14:14:16;95689.03;;;26.43
42119;BMP280;27783;42.782;23.274;2023-09-30T14:16:41;95695.56;;;26.12
42119;BMP280;27783;42.782;23.274;2023-09-30T14:19:07;95696.84;;;26.16
42119;BMP280;27783;42.782;23.274;2023-09-30T14:21:33;95701.66;;;26.07